Time;durP1;ratioP1;P1;durP2;ratioP2;P2;SDS_P1;SDS_P2;PMS_P1;PMS_P2;Temp;Humidity;BMP_temperature;BMP_pressure;BME280_temperature;BME280_humidity;BME280_pressure;Samples;Min_cycle;Max_cycle;Signal;HPM_P1;HPM_P2
2021/05/18 00:00:56;;;;;;;2.97;2.70;;;12.20;99.90;;;;;;5113093;28;20461;-86
2021/05/18 00:03:24;;;;;;;2.70;2.50;;;12.10;99.90;;;;;;5113065;28;20484;-86
2021/05/18 00:05:54;;;;;;;2.70;2.50;;;12.00;99.90;;;;;;5113151;28;20492;-84
2021/05/18 00:08:23;;;;;;;2.40;2.20;;;12.10;99.90;;;;;;5113125;28;20450;-84
2021/05/18 00:13:38;;;;;;;2.20;2.00;;;12.00;99.90;;;;;;5113229;28;20476;-85
2021/05/18 00:16:06;;;;;;;2.53;2.40;;;12.00;99.90;;;;;;5113253;28;20446;-87
2021/05/18 00:18:34;;;;;;;2.60;2.40;;;12.00;99.90;;;;;;5115246;28;21010;-87
2021/05/18 00:21:00;;;;;;;2.40;2.20;;;11.90;99.90;;;;;;5116007;28;20469;-87
2021/05/18 00:23:26;;;;;;;2.90;2.70;;;11.90;99.90;;;;;;5113315;28;20519;-87
2021/05/18 00:25:52;;;;;;;2.07;1.97;;;11.90;99.90;;;;;;5113501;28;20450;-87
2021/05/18 00:28:18;;;;;;;2.37;2.17;;;11.80;99.90;;;;;;5113420;28;20450;-86
2021/05/18 00:30:46;;;;;;;2.90;2.00;;;11.80;99.90;;;;;;5114342;28;20957;-86
2021/05/18 00:33:14;;;;;;;2.00;1.90;;;11.80;99.90;;;;;;5113303;28;20566;-85
2021/05/18 00:35:41;;;;;;;2.40;2.20;;;11.80;99.90;;;;;;5113003;28;21002;-86
2021/05/18 00:38:08;;;;;;;4.17;2.00;;;11.70;99.90;;;;;;5113165;28;20812;-86
2021/05/18 00:40:34;;;;;;;3.20;1.93;;;11.70;99.90;;;;;;5113294;28;20492;-84
2021/05/18 00:43:00;;;;;;;2.53;2.10;;;11.70;99.90;;;;;;5113935;28;20529;-84
2021/05/18 00:45:29;;;;;;;3.10;2.13;;;11.70;99.90;;;;;;5117042;28;20485;-84
2021/05/18 00:47:57;;;;;;;2.17;2.07;;;11.70;99.90;;;;;;5100709;28;20541;-87
2021/05/18 00:50:25;;;;;;;2.50;2.30;;;11.60;99.90;;;;;;5102489;28;20507;-86
2021/05/18 00:52:51;;;;;;;2.23;2.00;;;11.60;99.90;;;;;;5116840;27;20483;-86
2021/05/18 00:55:22;;;;;;;6.37;1.90;;;11.60;99.90;;;;;;5117242;28;20554;-88
2021/05/18 01:00:34;;;;;;;2.57;1.87;;;11.60;99.90;;;;;;5116763;28;20816;-86
2021/05/18 01:03:01;;;;;;;1.80;1.70;;;11.60;99.90;;;;;;5116454;28;20484;-85
2021/05/18 01:08:08;;;;;;;1.97;1.87;;;11.50;99.90;;;;;;5116232;28;20777;-86
2021/05/18 01:10:34;;;;;;;2.30;1.60;;;11.50;99.90;;;;;;5116443;28;20503;-85
2021/05/18 01:13:01;;;;;;;2.10;1.53;;;11.50;99.90;;;;;;5116114;28;20496;-84
2021/05/18 01:15:27;;;;;;;1.90;1.80;;;11.50;99.90;;;;;;5116433;28;20473;-86
2021/05/18 01:17:53;;;;;;;1.90;1.80;;;11.40;99.90;;;;;;5116250;28;20520;-85
2021/05/18 01:20:21;;;;;;;2.10;1.70;;;11.50;99.90;;;;;;5116350;28;20494;-85
2021/05/18 01:22:48;;;;;;;1.80;1.70;;;11.50;99.90;;;;;;5115930;28;20912;-85
2021/05/18 01:25:17;;;;;;;2.10;1.50;;;11.40;99.90;;;;;;5116062;28;20533;-84
2021/05/18 01:27:43;;;;;;;2.37;2.20;;;11.40;99.90;;;;;;5116163;28;20446;-85
2021/05/18 01:30:10;;;;;;;2.60;1.80;;;11.40;99.90;;;;;;5116103;28;20487;-89
2021/05/18 01:32:39;;;;;;;1.97;1.87;;;11.40;99.90;;;;;;5116491;28;20488;-89
2021/05/18 01:35:06;;;;;;;2.07;1.90;;;11.30;99.90;;;;;;5115943;28;20457;-89
2021/05/18 01:37:32;;;;;;;2.00;1.90;;;11.30;99.90;;;;;;5115814;28;20457;-88
2021/05/18 01:40:11;;;;;;;2.30;2.17;;;11.30;99.90;;;;;;5115738;28;20785;-87
2021/05/18 01:42:47;;;;;;;2.00;1.60;;;11.30;99.90;;;;;;5115542;28;20481;-88
2021/05/18 01:45:16;;;;;;;3.10;2.10;;;11.30;99.90;;;;;;5115866;28;20460;-90
2021/05/18 01:47:48;;;;;;;3.97;2.20;;;11.30;99.90;;;;;;5115421;28;20441;-89
2021/05/18 01:50:15;;;;;;;1.87;1.77;;;11.30;99.90;;;;;;5115385;28;20445;-89
2021/05/18 01:52:41;;;;;;;1.80;1.70;;;11.20;99.90;;;;;;5115707;28;20497;-89
2021/05/18 01:55:11;;;;;;;1.70;1.60;;;11.20;99.90;;;;;;5115293;28;20896;-88
2021/05/18 01:57:37;;;;;;;2.90;1.60;;;11.20;99.90;;;;;;5115388;28;20448;-89
2021/05/18 02:00:06;;;;;;;1.90;1.67;;;11.20;99.90;;;;;;5115342;28;20859;-89
2021/05/18 02:02:32;;;;;;;1.70;1.60;;;11.20;99.90;;;;;;5115111;28;20576;-89
2021/05/18 02:05:02;;;;;;;1.60;1.50;;;11.10;99.90;;;;;;5115226;28;20445;-88
2021/05/18 02:07:31;;;;;;;1.70;1.60;;;11.20;99.90;;;;;;5115379;28;20456;-88
2021/05/18 02:09:58;;;;;;;1.93;1.83;;;11.10;99.90;;;;;;5115470;28;20953;-86
2021/05/18 02:12:25;;;;;;;1.77;1.67;;;11.10;99.90;;;;;;5115173;28;20484;-86
2021/05/18 02:14:56;;;;;;;1.90;1.80;;;11.10;99.90;;;;;;5115130;28;20481;-86
2021/05/18 02:17:29;;;;;;;2.20;1.77;;;11.10;99.90;;;;;;5114941;28;20511;-86
2021/05/18 02:20:08;;;;;;;2.90;2.23;;;11.10;99.90;;;;;;5115184;28;20456;-89
2021/05/18 02:25:21;;;;;;;2.03;1.70;;;11.00;99.90;;;;;;5115068;28;20990;-87
2021/05/18 02:27:49;;;;;;;2.30;1.63;;;11.00;99.90;;;;;;5114694;28;20843;-88
2021/05/18 02:30:17;;;;;;;1.80;1.70;;;11.00;99.90;;;;;;5114803;28;20521;-88
2021/05/18 02:32:43;;;;;;;1.87;1.77;;;11.00;99.90;;;;;;5114794;28;20520;-87
2021/05/18 02:35:12;;;;;;;2.10;1.90;;;11.00;99.90;;;;;;5114809;28;20458;-88
2021/05/18 02:37:39;;;;;;;2.33;2.03;;;11.00;99.90;;;;;;5114631;28;20477;-86
2021/05/18 02:40:07;;;;;;;2.60;2.40;;;10.90;99.90;;;;;;5114596;28;20488;-85
2021/05/18 02:42:33;;;;;;;2.00;1.90;;;10.90;99.90;;;;;;5114375;28;20481;-86
2021/05/18 02:45:04;;;;;;;2.30;2.20;;;10.90;99.90;;;;;;5114691;28;20450;-85
2021/05/18 02:50:15;;;;;;;2.17;2.07;;;10.90;99.90;;;;;;5114308;28;20497;-86
2021/05/18 02:52:41;;;;;;;2.30;2.10;;;10.90;99.90;;;;;;5114072;28;20525;-85
2021/05/18 02:55:10;;;;;;;2.50;2.23;;;10.90;99.90;;;;;;5114232;28;20449;-85
2021/05/18 02:57:38;;;;;;;2.40;2.20;;;10.90;99.90;;;;;;5114332;28;20524;-85
2021/05/18 03:00:09;;;;;;;2.60;2.43;;;10.80;99.90;;;;;;5114053;28;20505;-85
2021/05/18 03:02:35;;;;;;;2.20;1.97;;;10.80;99.90;;;;;;5114209;28;20897;-88
2021/05/18 03:05:02;;;;;;;2.00;1.90;;;10.80;99.90;;;;;;5113888;28;20473;-88
2021/05/18 03:07:28;;;;;;;2.40;2.13;;;10.80;99.90;;;;;;5113552;28;20503;-88
2021/05/18 03:09:56;;;;;;;2.63;1.87;;;10.80;99.90;;;;;;5113874;28;20963;-86
2021/05/18 03:12:22;;;;;;;2.80;2.60;;;10.80;99.90;;;;;;5114202;28;21023;-86
2021/05/18 03:14:48;;;;;;;1.97;1.77;;;10.80;99.90;;;;;;5114009;28;20513;-86
2021/05/18 03:17:15;;;;;;;2.13;2.03;;;10.80;99.90;;;;;;5113300;27;20530;-80
2021/05/18 03:19:42;;;;;;;2.40;2.20;;;10.80;99.90;;;;;;5113679;28;20456;-81
2021/05/18 03:22:08;;;;;;;2.00;1.90;;;10.80;99.90;;;;;;5113538;28;20584;-81
2021/05/18 03:24:34;;;;;;;2.17;1.93;;;10.80;99.90;;;;;;5113774;28;20484;-80
2021/05/18 03:27:00;;;;;;;2.47;2.27;;;10.80;99.90;;;;;;5111762;28;20485;-80
2021/05/18 03:29:29;;;;;;;2.77;2.27;;;10.80;99.90;;;;;;5113832;28;20499;-81
2021/05/18 03:34:40;;;;;;;2.23;2.13;;;10.90;99.90;;;;;;5113369;28;20495;-80
2021/05/18 03:37:12;;;;;;;2.20;2.10;;;11.00;99.90;;;;;;5113643;28;20481;-80
2021/05/18 03:39:39;;;;;;;3.83;1.93;;;11.10;99.90;;;;;;5113441;28;20445;-80
2021/05/18 03:42:10;;;;;;;3.63;2.43;;;11.10;99.90;;;;;;5113314;28;20476;-80
2021/05/18 03:53:01;;;;;;;3.90;2.70;;;11.40;99.90;;;;;;5092784;28;20472;-80
2021/05/18 04:04:06;;;;;;;2.20;2.00;;;11.90;99.90;;;;;;5010486;28;20957;-81
2021/05/18 04:12:11;;;;;;;1.73;1.63;;;12.30;99.90;;;;;;5092691;28;20460;-81
2021/05/18 04:17:23;;;;;;;2.13;2.03;;;12.60;99.90;;;;;;5094240;28;20450;-81
2021/05/18 04:19:55;;;;;;;2.20;2.00;;;12.80;99.90;;;;;;5096883;28;20809;-81
2021/05/18 04:22:40;;;;;;;2.50;1.83;;;13.00;99.90;;;;;;5096305;28;20991;-81
2021/05/18 04:25:33;;;;;;;2.40;1.87;;;13.20;99.90;;;;;;5096879;28;20500;-80
2021/05/18 04:39:05;;;;;;;3.13;1.97;;;13.60;99.90;;;;;;5116976;28;20472;-79
2021/05/18 04:49:59;;;;;;;2.17;1.97;;;14.00;99.90;;;;;;5096744;28;20433;-80
2021/05/18 04:52:29;;;;;;;1.80;1.70;;;14.10;99.90;;;;;;5116307;28;20936;-80
2021/05/18 05:00:25;;;;;;;2.70;1.83;;;14.30;99.90;;;;;;5116437;28;20491;-81
2021/05/18 05:03:02;;;;;;;1.90;1.80;;;14.40;99.90;;;;;;5116493;28;20477;-83
2021/05/18 05:08:16;;;;;;;2.53;1.87;;;14.60;99.90;;;;;;5115831;28;20448;-82
2021/05/18 05:16:10;;;;;;;2.67;2.03;;;14.90;99.90;;;;;;5116166;28;20432;-84
2021/05/18 05:18:36;;;;;;;2.27;2.07;;;14.90;99.90;;;;;;5116375;28;20485;-84
2021/05/18 05:21:03;;;;;;;2.53;2.00;;;15.00;99.90;;;;;;5116187;28;20445;-84
2021/05/18 05:23:29;;;;;;;5.40;2.10;;;15.00;99.90;;;;;;5115872;28;20531;-83
2021/05/18 05:25:56;;;;;;;2.17;1.90;;;15.10;99.90;;;;;;5115828;28;20453;-85
2021/05/18 05:28:22;;;;;;;2.37;2.20;;;15.10;99.90;;;;;;5115455;28;20554;-85
2021/05/18 05:30:48;;;;;;;2.07;1.93;;;15.10;99.90;;;;;;5115875;28;20481;-85
2021/05/18 05:33:16;;;;;;;2.60;2.40;;;15.10;99.90;;;;;;5115721;28;20457;-84
2021/05/18 05:35:46;;;;;;;4.70;1.93;;;15.10;99.90;;;;;;5115486;28;20446;-83
2021/05/18 05:38:15;;;;;;;4.17;2.10;;;15.00;99.90;;;;;;5115341;28;20458;-87
2021/05/18 05:40:41;;;;;;;3.20;2.90;;;14.90;99.90;;;;;;5113389;28;20441;-87
2021/05/18 05:43:08;;;;;;;4.33;3.40;;;14.70;99.90;;;;;;5115945;28;20564;-86
2021/05/18 05:45:34;;;;;;;3.77;3.03;;;14.80;99.90;;;;;;5115646;28;20445;-82
2021/05/18 05:48:00;;;;;;;2.63;2.53;;;14.80;99.90;;;;;;5115697;28;20485;-82
2021/05/18 05:50:26;;;;;;;3.27;3.00;;;14.80;99.90;;;;;;5115467;28;20473;-82
2021/05/18 05:52:52;;;;;;;4.50;3.97;;;14.70;99.90;;;;;;5114948;28;20540;-82
2021/05/18 05:55:18;;;;;;;4.47;3.33;;;14.70;99.90;;;;;;5115467;27;20530;-83
2021/05/18 05:57:45;;;;;;;3.70;3.37;;;14.80;99.90;;;;;;5115359;28;20485;-84
2021/05/18 06:00:13;;;;;;;4.93;4.00;;;14.80;99.90;;;;;;5114595;28;20480;-84
2021/05/18 06:02:40;;;;;;;5.17;3.90;;;14.80;99.90;;;;;;5094588;28;20514;-84
2021/05/18 06:05:07;;;;;;;4.40;4.00;;;14.90;99.90;;;;;;5094924;28;20486;-84
2021/05/18 06:07:33;;;;;;;4.20;3.90;;;15.00;99.90;;;;;;5094716;28;20926;-84
2021/05/18 06:10:03;;;;;;;5.93;4.23;;;15.10;99.90;;;;;;5094754;28;20499;-84
2021/05/18 06:12:45;;;;;;;3.73;3.47;;;15.20;99.90;;;;;;5094502;28;20508;-84
2021/05/18 06:15:39;;;;;;;3.63;3.33;;;15.30;99.90;;;;;;5094978;28;20445;-85
2021/05/18 06:29:33;;;;;;;5.47;4.00;;;15.40;99.90;;;;;;5094503;28;20891;-84
2021/05/18 06:37:49;;;;;;;4.60;4.20;;;17.40;99.90;;;;;;5052072;28;20436;-87
2021/05/18 06:43:06;;;;;;;4.83;4.50;;;17.70;99.90;;;;;;5114112;28;20878;-87
2021/05/18 06:46:01;;;;;;;4.00;3.70;;;17.70;99.90;;;;;;5114510;28;20496;-87
2021/05/18 06:48:28;;;;;;;4.27;3.87;;;17.70;99.90;;;;;;5114166;28;20545;-87
2021/05/18 06:50:54;;;;;;;4.30;4.00;;;17.70;99.90;;;;;;5114036;28;20524;-86
2021/05/18 06:53:20;;;;;;;4.90;4.50;;;17.80;99.90;;;;;;5114168;28;20490;-87
2021/05/18 06:55:48;;;;;;;5.50;4.83;;;18.00;99.90;;;;;;5114348;28;20548;-86
2021/05/18 06:58:19;;;;;;;5.40;4.90;;;18.20;99.90;;;;;;5114114;28;20801;-85
2021/05/18 07:00:46;;;;;;;4.63;4.33;;;18.20;99.90;;;;;;5113907;27;20560;-86
2021/05/18 07:03:14;;;;;;;5.03;4.53;;;18.00;99.90;;;;;;5113918;28;20481;-84
2021/05/18 07:05:47;;;;;;;5.17;4.60;;;17.90;99.90;;;;;;5113851;28;20944;-85
2021/05/18 07:08:54;;;;;;;10.73;6.00;;;17.70;99.90;;;;;;5114078;28;20453;-85
2021/05/18 07:11:16;;;;;;;7.40;6.80;;;17.50;99.90;;;;;;5113824;28;20445;-85
2021/05/18 07:13:42;;;;;;;6.77;6.17;;;17.40;99.90;;;;;;5113625;28;20524;-86
2021/05/18 07:16:08;;;;;;;6.87;6.30;;;17.40;99.90;;;;;;5113847;28;20971;-86
2021/05/18 07:18:34;;;;;;;7.37;6.77;;;17.40;99.90;;;;;;5113885;28;20530;-88
2021/05/18 07:21:02;;;;;;;6.70;6.10;;;17.60;99.90;;;;;;5113644;28;20449;-88
2021/05/18 07:23:29;;;;;;;6.27;5.67;;;17.60;99.90;;;;;;5112884;28;20581;-87
2021/05/18 07:25:55;;;;;;;6.87;6.37;;;17.80;99.90;;;;;;5112436;28;20797;-88
2021/05/18 07:28:22;;;;;;;6.53;5.93;;;17.90;99.90;;;;;;5113158;28;20445;-87
2021/05/18 07:30:49;;;;;;;9.10;6.60;;;18.00;99.90;;;;;;5110585;28;20450;-87
2021/05/18 07:33:15;;;;;;;6.00;5.60;;;18.00;99.90;;;;;;5113116;28;20446;-87
2021/05/18 07:35:43;;;;;;;6.80;6.20;;;18.20;99.90;;;;;;5112918;28;21015;-87
2021/05/18 07:38:11;;;;;;;6.33;5.73;;;18.50;99.90;;;;;;5112197;28;21069;-86
2021/05/18 07:40:39;;;;;;;6.07;4.90;;;18.80;99.90;;;;;;5113039;28;20473;-87
2021/05/18 07:43:05;;;;;;;4.70;4.30;;;19.00;99.90;;;;;;5109857;28;20497;-87
2021/05/18 07:45:32;;;;;;;5.10;4.70;;;19.20;99.90;;;;;;5112983;28;20452;-88
2021/05/18 07:48:04;;;;;;;6.77;6.17;;;19.30;99.90;;;;;;5113189;28;20450;-85
2021/05/18 07:50:41;;;;;;;5.60;5.20;;;19.20;99.90;;;;;;5112951;28;20975;-85
2021/05/18 08:06:45;;;;;;;6.27;5.67;;;18.90;99.90;;;;;;5092251;28;20468;-89
2021/05/18 08:09:11;;;;;;;6.43;5.83;;;18.90;99.90;;;;;;5102376;28;20473;-87
2021/05/18 08:11:37;;;;;;;5.97;5.40;;;18.70;99.90;;;;;;5112384;28;20470;-87
2021/05/18 08:14:04;;;;;;;6.53;5.93;;;18.60;99.90;;;;;;5112407;28;20472;-87
2021/05/18 08:19:32;;;;;;;8.90;6.33;;;18.30;99.90;;;;;;5094805;28;20426;-87
2021/05/18 08:22:25;;;;;;;6.47;5.87;;;18.10;99.90;;;;;;5112357;28;20469;-87
2021/05/18 10:36:28;;;;;;;1.60;1.50;;;19.70;99.90;;;;;;5109126;28;20517;-88
2021/05/18 10:39:17;;;;;;;1.60;1.50;;;19.70;99.90;;;;;;5109285;28;20184;-88
2021/05/18 10:41:44;;;;;;;1.80;1.70;;;19.70;99.90;;;;;;5109215;28;20457;-87
2021/05/18 10:44:12;;;;;;;1.70;1.60;;;19.70;99.90;;;;;;5109778;28;20833;-87
2021/05/18 10:46:48;;;;;;;1.90;1.80;;;19.80;99.90;;;;;;5109783;28;20442;-88
2021/05/18 10:49:18;;;;;;;1.60;1.50;;;20.00;99.90;;;;;;5110242;28;20449;-88
2021/05/18 10:51:55;;;;;;;1.57;1.47;;;20.00;99.90;;;;;;5109540;28;20534;-86
2021/05/18 10:54:30;;;;;;;1.93;1.50;;;20.30;99.90;;;;;;5109523;28;20473;-87
2021/05/18 10:57:05;;;;;;;1.90;1.70;;;20.60;99.90;;;;;;5108383;28;20487;-88
2021/05/18 10:59:33;;;;;;;1.53;1.43;;;20.90;99.90;;;;;;5110631;28;20445;-94
2021/05/18 11:02:01;;;;;;;2.20;1.33;;;21.20;99.90;;;;;;5110937;28;20961;-94
2021/05/18 11:04:29;;;;;;;1.53;1.43;;;21.30;99.90;;;;;;5109774;28;20828;-91
2021/05/18 11:06:57;;;;;;;1.80;1.70;;;21.50;99.90;;;;;;5110910;28;20469;-90
2021/05/18 11:09:24;;;;;;;1.73;1.50;;;21.70;99.90;;;;;;5110280;28;20500;-90
2021/05/18 11:11:59;;;;;;;1.73;1.50;;;21.80;99.90;;;;;;5110658;28;20652;-91
2021/05/18 11:14:34;;;;;;;1.60;1.50;;;21.50;99.90;;;;;;5110148;28;20544;-92
2021/05/18 11:17:12;;;;;;;1.47;1.37;;;20.90;99.90;;;;;;5093561;28;20441;-89
2021/05/18 11:19:58;;;;;;;2.73;2.20;;;20.40;99.90;;;;;;5111838;28;20477;-92
2021/05/18 11:25:10;;;;;;;1.63;1.53;;;20.40;99.90;;;;;;5110693;28;20878;-90
2021/05/18 11:27:37;;;;;;;1.33;1.23;;;20.50;99.90;;;;;;5111011;28;20438;-93
2021/05/18 11:30:05;;;;;;;2.20;1.70;;;20.60;99.90;;;;;;5111263;28;20497;-91
2021/05/18 11:32:31;;;;;;;2.33;1.30;;;20.80;99.90;;;;;;5110648;28;20580;-91
2021/05/18 11:34:59;;;;;;;1.67;1.50;;;21.10;99.90;;;;;;5109167;28;20492;-91
2021/05/18 11:37:26;;;;;;;1.80;1.60;;;21.10;99.90;;;;;;5095781;28;20449;-90
2021/05/18 11:40:13;;;;;;;2.63;1.80;;;20.90;99.90;;;;;;5095646;28;21032;-91
2021/05/18 11:42:39;;;;;;;3.13;1.70;;;20.70;99.90;;;;;;5097066;28;20466;-91
2021/05/18 11:45:14;;;;;;;2.83;2.10;;;20.30;99.90;;;;;;5096859;28;20519;-93
2021/05/18 11:47:41;;;;;;;2.10;2.00;;;19.70;99.90;;;;;;5096810;28;20450;-89
2021/05/18 11:50:17;;;;;;;2.20;1.93;;;19.30;99.90;;;;;;5076614;28;20482;-92
2021/05/18 11:52:43;;;;;;;2.30;2.10;;;19.10;99.90;;;;;;5085021;28;20439;-92
2021/05/18 11:55:27;;;;;;;2.77;2.47;;;19.00;99.90;;;;;;5096797;28;20533;-90
2021/05/18 11:57:54;;;;;;;2.17;1.97;;;19.10;99.90;;;;;;5096043;28;20465;-92
2021/05/18 12:00:24;;;;;;;2.40;2.20;;;19.20;99.90;;;;;;5095528;28;20460;-91
2021/05/18 12:02:59;;;;;;;2.30;2.10;;;19.50;99.90;;;;;;5096507;28;20798;-95
2021/05/18 12:05:25;;;;;;;3.27;2.30;;;19.60;99.90;;;;;;5098289;28;20510;-93
2021/05/18 12:07:51;;;;;;;3.63;3.10;;;19.80;99.90;;;;;;5095394;28;20474;-89
2021/05/18 12:10:34;;;;;;;4.00;2.80;;;20.00;99.90;;;;;;5095364;28;20446;-90
2021/05/18 12:13:03;;;;;;;3.23;2.90;;;20.20;99.90;;;;;;5094561;28;20443;-90
2021/05/18 12:15:30;;;;;;;2.53;2.33;;;20.30;99.90;;;;;;5094257;28;20454;-89
2021/05/18 12:17:57;;;;;;;3.07;2.87;;;20.10;99.90;;;;;;5094163;28;20805;-90
2021/05/18 12:20:24;;;;;;;3.53;3.20;;;19.80;99.90;;;;;;5094398;28;20488;-90
2021/05/18 12:22:51;;;;;;;2.23;1.90;;;19.70;99.90;;;;;;5094513;28;20453;-89
2021/05/18 12:25:31;;;;;;;4.57;2.60;;;19.80;99.90;;;;;;5093832;28;20483;-90
2021/05/18 12:28:09;;;;;;;3.57;3.00;;;20.00;99.90;;;;;;5093816;28;20442;-88
2021/05/18 12:30:38;;;;;;;3.40;3.10;;;20.30;99.90;;;;;;5093988;28;20438;-88
2021/05/18 12:33:05;;;;;;;4.00;3.40;;;20.20;99.90;;;;;;5091288;28;20474;-87
2021/05/18 12:35:31;;;;;;;3.17;2.90;;;20.30;99.90;;;;;;5093127;28;20997;-90
2021/05/18 12:37:57;;;;;;;5.50;3.23;;;20.20;99.90;;;;;;5092014;28;20450;-89
2021/05/18 12:40:31;;;;;;;3.80;3.23;;;20.30;99.90;;;;;;5093839;28;20446;-89
2021/05/18 12:43:09;;;;;;;3.27;2.97;;;20.30;99.90;;;;;;5094190;28;20968;-88
2021/05/18 12:45:36;;;;;;;4.50;3.73;;;19.90;99.90;;;;;;5093898;28;20904;-89
2021/05/18 12:48:03;;;;;;;3.03;2.73;;;19.50;99.90;;;;;;5090096;28;20450;-89
2021/05/18 12:50:38;;;;;;;3.93;3.53;;;19.40;99.90;;;;;;5093543;28;20465;-90
2021/05/18 12:53:06;;;;;;;3.90;2.87;;;19.10;99.90;;;;;;5091730;28;20925;-90
2021/05/18 12:55:33;;;;;;;4.57;2.53;;;19.00;99.90;;;;;;5093898;28;20457;-89
2021/05/18 12:58:01;;;;;;;2.27;1.90;;;19.00;99.90;;;;;;5093434;28;20500;-90
2021/05/18 13:00:29;;;;;;;4.13;2.10;;;19.20;99.90;;;;;;5094200;28;20855;-88
2021/05/18 13:03:08;;;;;;;2.93;1.90;;;19.40;99.90;;;;;;5090744;28;20447;-90
2021/05/18 13:05:34;;;;;;;2.53;1.70;;;19.80;99.90;;;;;;5092722;28;20470;-90
2021/05/18 13:08:07;;;;;;;4.40;4.10;;;20.00;99.90;;;;;;5093591;28;20447;-91
2021/05/18 13:10:39;;;;;;;2.80;2.07;;;20.00;99.90;;;;;;5093412;28;20492;-90
2021/05/18 13:13:07;;;;;;;1.93;1.80;;;20.00;99.90;;;;;;5091010;28;20503;-90
2021/05/18 13:15:34;;;;;;;2.20;2.00;;;20.10;99.90;;;;;;5093264;28;20451;-89
2021/05/18 13:18:03;;;;;;;5.30;1.77;;;20.20;99.90;;;;;;5093329;28;20546;-89
2021/05/18 13:20:40;;;;;;;4.33;2.70;;;20.40;99.90;;;;;;5090822;28;20791;-90
2021/05/18 13:23:09;;;;;;;4.87;2.80;;;20.50;99.90;;;;;;5092115;28;20805;-90
2021/05/18 13:28:21;;;;;;;3.83;2.60;;;20.30;99.90;;;;;;5092872;28;20450;-88
2021/05/18 13:30:47;;;;;;;2.57;2.37;;;19.90;99.90;;;;;;5093614;28;20446;-89
2021/05/18 13:33:15;;;;;;;6.40;2.30;;;19.60;99.90;;;;;;5093478;28;20474;-90
2021/05/18 13:35:41;;;;;;;4.67;2.10;;;19.20;99.90;;;;;;5093661;28;20877;-90
2021/05/18 13:38:07;;;;;;;2.50;2.30;;;18.80;99.90;;;;;;5094285;28;20881;-94
2021/05/18 13:40:33;;;;;;;2.63;1.83;;;18.70;99.90;;;;;;5093715;28;20550;-90
2021/05/18 13:42:59;;;;;;;4.57;2.10;;;18.60;99.90;;;;;;5094151;28;20486;-90
2021/05/18 13:45:26;;;;;;;3.13;2.00;;;18.50;99.90;;;;;;5094302;28;20569;-93
2021/05/18 13:47:54;;;;;;;3.57;2.20;;;18.60;99.90;;;;;;5093150;28;20489;-92
2021/05/18 13:50:21;;;;;;;3.13;2.40;;;18.70;99.90;;;;;;5092901;28;20500;-95
2021/05/18 13:52:47;;;;;;;2.37;1.83;;;18.70;99.90;;;;;;5094678;28;20546;-91
2021/05/18 13:55:13;;;;;;;2.70;1.53;;;18.90;99.90;;;;;;5093230;28;20503;-89
2021/05/18 13:57:40;;;;;;;3.47;2.27;;;19.10;99.90;;;;;;5091782;28;20869;-90
2021/05/18 14:00:09;;;;;;;2.57;1.80;;;19.40;99.90;;;;;;5093105;28;20465;-92
2021/05/18 14:02:37;;;;;;;3.00;1.93;;;19.70;99.90;;;;;;5092194;28;20442;-90
2021/05/18 14:05:04;;;;;;;3.90;2.00;;;20.00;99.90;;;;;;5087141;28;20485;-90
2021/05/18 14:08:19;;;;;;;2.57;1.83;;;20.40;99.90;;;;;;5089978;28;20577;-89
2021/05/18 14:10:45;;;;;;;3.10;2.00;;;20.80;99.90;;;;;;5091143;28;20802;-91
2021/05/18 14:13:11;;;;;;;3.70;2.40;;;21.10;99.90;;;;;;5092583;28;20855;-89
2021/05/18 14:15:37;;;;;;;2.60;2.27;;;21.30;99.90;;;;;;5092308;28;20477;-90
2021/05/18 14:18:04;;;;;;;2.40;2.20;;;21.10;99.90;;;;;;5087201;28;20968;-88
2021/05/18 14:20:30;;;;;;;3.23;2.10;;;21.00;99.90;;;;;;5090686;28;20946;-88
2021/05/18 14:22:57;;;;;;;3.63;2.30;;;20.80;99.90;;;;;;5091859;28;20470;-89
2021/05/18 14:25:23;;;;;;;2.03;1.93;;;20.40;99.90;;;;;;5091771;28;20489;-88
2021/05/18 14:27:49;;;;;;;2.97;2.30;;;20.30;99.90;;;;;;5091903;28;20997;-88
2021/05/18 14:30:16;;;;;;;2.60;2.30;;;20.50;99.90;;;;;;5091643;28;20533;-89
2021/05/18 14:32:42;;;;;;;4.90;2.00;;;20.20;99.90;;;;;;5092001;28;20560;-88
2021/05/18 14:35:11;;;;;;;1.83;1.67;;;20.00;99.90;;;;;;5091501;28;20500;-88
2021/05/18 14:37:38;;;;;;;2.37;2.10;;;20.00;99.90;;;;;;5091931;28;20927;-89
2021/05/18 14:40:11;;;;;;;3.30;1.67;;;19.90;99.90;;;;;;5089533;28;20533;-88
2021/05/18 14:42:51;;;;;;;2.43;1.73;;;19.90;99.90;;;;;;5090977;28;20443;-90
2021/05/18 14:45:21;;;;;;;2.43;2.00;;;20.00;99.90;;;;;;5091544;28;20539;-89
2021/05/18 14:47:53;;;;;;;2.63;2.30;;;19.90;99.90;;;;;;5092215;28;20434;-88
2021/05/18 14:55:49;;;;;;;3.03;1.77;;;19.30;99.90;;;;;;5092324;28;20458;-89
2021/05/18 14:58:16;;;;;;;2.73;2.30;;;19.30;99.90;;;;;;5092345;28;20537;-89
2021/05/18 15:00:42;;;;;;;2.00;1.63;;;19.50;99.90;;;;;;5091483;28;20442;-88
2021/05/18 15:03:09;;;;;;;1.77;1.67;;;19.60;99.90;;;;;;5091576;28;20478;-89
2021/05/18 15:05:36;;;;;;;2.50;1.80;;;19.60;99.90;;;;;;5091291;28;20489;-89
2021/05/18 15:08:03;;;;;;;3.47;1.70;;;19.40;99.90;;;;;;5091479;28;20524;-89
2021/05/18 15:10:29;;;;;;;1.50;1.40;;;19.40;99.90;;;;;;5091879;28;20545;-88
2021/05/18 15:12:56;;;;;;;3.60;1.67;;;19.50;99.90;;;;;;5089541;28;20447;-88
2021/05/18 15:15:23;;;;;;;2.43;1.70;;;19.60;99.90;;;;;;5095075;28;20570;-89
2021/05/18 15:17:50;;;;;;;1.60;1.50;;;19.60;99.90;;;;;;5094285;28;20442;-89
2021/05/18 15:20:17;;;;;;;2.07;1.60;;;19.50;99.90;;;;;;5093896;28;20475;-89
2021/05/18 15:22:43;;;;;;;2.10;1.40;;;19.50;99.90;;;;;;5095100;28;20805;-89
2021/05/18 15:25:10;;;;;;;2.10;1.40;;;19.50;99.90;;;;;;5093668;28;21071;-88
2021/05/18 15:27:37;;;;;;;1.70;1.43;;;19.30;99.90;;;;;;5094551;28;20478;-89
2021/05/18 15:30:06;;;;;;;2.13;2.00;;;19.00;99.90;;;;;;5095310;28;20577;-86
2021/05/18 15:32:35;;;;;;;2.20;1.40;;;18.90;99.90;;;;;;5094864;28;20496;-88
2021/05/18 15:35:02;;;;;;;2.60;1.93;;;18.60;99.90;;;;;;5094642;28;20964;-88
2021/05/18 15:37:28;;;;;;;3.43;2.03;;;18.60;99.90;;;;;;5094819;28;20522;-88
2021/05/18 15:39:54;;;;;;;1.67;1.30;;;18.60;99.90;;;;;;5094620;28;20541;-88
2021/05/18 15:42:20;;;;;;;1.77;1.60;;;18.60;99.90;;;;;;5094849;28;20545;-88
2021/05/18 15:44:46;;;;;;;2.07;1.43;;;18.70;99.90;;;;;;5092571;28;20509;-87
2021/05/18 15:47:14;;;;;;;1.50;1.40;;;18.80;99.90;;;;;;5094753;28;20478;-88
2021/05/18 15:49:40;;;;;;;2.30;1.77;;;18.90;99.90;;;;;;5094618;28;20478;-87
2021/05/18 15:52:06;;;;;;;2.60;1.80;;;19.10;99.90;;;;;;5090732;28;20493;-88
2021/05/18 15:54:32;;;;;;;3.13;1.90;;;19.10;99.90;;;;;;5094457;28;20500;-87
2021/05/18 15:56:59;;;;;;;2.00;1.37;;;19.10;99.90;;;;;;5094304;28;20466;-86
2021/05/18 15:59:25;;;;;;;2.60;1.83;;;19.10;99.90;;;;;;5088683;28;20478;-86
2021/05/18 16:01:51;;;;;;;4.03;1.80;;;19.00;99.90;;;;;;5094398;28;20465;-87
2021/05/18 16:04:18;;;;;;;2.33;1.20;;;18.90;99.90;;;;;;5094352;28;20541;-87
2021/05/18 16:06:44;;;;;;;5.90;2.20;;;18.80;99.90;;;;;;5094229;28;20474;-87
2021/05/18 16:09:11;;;;;;;1.90;1.80;;;18.70;99.90;;;;;;5093550;28;20500;-87
2021/05/18 16:11:38;;;;;;;2.03;1.27;;;18.70;99.90;;;;;;5092209;28;20501;-87
2021/05/18 16:14:05;;;;;;;2.30;1.77;;;18.70;99.90;;;;;;5093553;28;20480;-86
2021/05/18 16:16:31;;;;;;;1.60;1.50;;;18.60;99.90;;;;;;5091475;28;20537;-86
2021/05/18 16:18:57;;;;;;;3.00;1.73;;;18.50;99.90;;;;;;5093917;28;20817;-85
2021/05/18 16:21:25;;;;;;;2.73;2.10;;;18.50;99.90;;;;;;5093723;28;20472;-88
2021/05/18 16:23:53;;;;;;;2.47;1.77;;;18.40;99.90;;;;;;5094065;28;20498;-90
2021/05/18 16:26:22;;;;;;;2.53;2.30;;;18.30;99.90;;;;;;5094705;28;20845;-90
2021/05/18 16:28:48;;;;;;;2.50;2.03;;;18.20;99.90;;;;;;5094616;28;20524;-90
2021/05/18 16:31:15;;;;;;;3.30;2.10;;;18.20;99.90;;;;;;5092697;28;20844;-89
2021/05/18 16:33:41;;;;;;;1.93;1.50;;;18.10;99.90;;;;;;5093987;28;20443;-90
2021/05/18 16:36:09;;;;;;;2.40;1.73;;;18.10;99.90;;;;;;5094178;28;20482;-87
2021/05/18 16:38:36;;;;;;;2.30;1.60;;;18.00;99.90;;;;;;5094271;28;20439;-88
2021/05/18 16:41:04;;;;;;;2.03;1.83;;;17.90;99.90;;;;;;5093892;28;20474;-88
2021/05/18 16:43:30;;;;;;;2.23;1.50;;;17.70;99.90;;;;;;5093944;28;20802;-87
2021/05/18 16:45:57;;;;;;;3.33;1.57;;;17.70;99.90;;;;;;5093547;28;20482;-88
2021/05/18 16:48:26;;;;;;;3.87;1.93;;;17.60;99.90;;;;;;5093601;28;20838;-89
2021/05/18 16:50:53;;;;;;;1.90;1.80;;;17.50;99.90;;;;;;5089573;28;20451;-87
2021/05/18 16:53:19;;;;;;;5.10;2.50;;;17.40;99.90;;;;;;5093589;28;20443;-88
2021/05/18 16:55:46;;;;;;;2.87;1.83;;;17.40;99.90;;;;;;5090389;28;20533;-88
2021/05/18 16:58:12;;;;;;;2.93;2.23;;;17.40;99.90;;;;;;5093597;28;20453;-88
2021/05/18 17:00:39;;;;;;;2.87;1.90;;;17.30;99.90;;;;;;5092902;28;20474;-88
2021/05/18 17:03:05;;;;;;;1.60;1.50;;;17.30;99.90;;;;;;5092733;28;21017;-89
2021/05/18 17:05:31;;;;;;;4.33;2.03;;;17.30;99.90;;;;;;5092724;28;20625;-87
2021/05/18 17:08:02;;;;;;;3.37;2.70;;;17.20;99.90;;;;;;5093266;28;20537;-88
2021/05/18 17:10:29;;;;;;;2.87;2.03;;;17.20;99.90;;;;;;5092869;28;20447;-87